Bristow, Oklahoma
Current Conditions -  °F | °C
As of 2:55 PM on Friday 31 Oct 2014 (Local Time) from KCUH Reporting Station
Clear Clear  
Wind Chill: 55°   Ceiling: Unl
Heat Index: 55°   Visibility: 10mi
Dew Point: 32°   Wind: 14mph
Humidity: 41%   Direction: 20°NNE
Pressure: 30.39"   Gusts: 17mph
Location:  35.83°N, 96.39°W
Report Text: KCUH 311955Z AUTO 02012G15KT 10SM CLR 13/00 A3039 RMK AO2
Loading
Personal Weather Stations






























Interactive Weather Map
Tropical Storm Tracking
New forecast layout! Learn more

10-Day Weather Forecast

Advertisements
Track Severe Weather on mobile